Time,TemperatureF,DewpointF,PressureIn,WindDirection,WindDirectionDegrees,WindSpeedMPH,WindSpeedGustMPH,Humidity,HourlyPrecipIn,Conditions,Clouds,dailyrainin,SolarRadiationWatts/m^2,SoftwareType,DateUTC
2013-02-02 00:02:00,-2.0,-12.0,-100.00,WNW,284,4.0,10.0,60,0.00,,,0.00,0.000000,,2013-02-02 06:02:00,
2013-02-02 00:12:00,-2.0,-12.0,-100.00,WNW,284,4.0,10.0,60,0.00,,,0.00,0.000000,,2013-02-02 06:12:00,
2013-02-02 00:32:00,-2.0,-12.0,-100.00,West,274,4.0,8.0,61,0.00,,,-99.99,0.000000,,2013-02-02 06:32:00,
2013-02-02 00:42:00,-2.0,-12.0,-100.00,West,274,4.0,8.0,61,0.00,,,-99.99,0.000000,,2013-02-02 06:42:00,
2013-02-02 00:52:00,-2.0,-12.0,-100.00,West,274,4.0,8.0,61,0.00,,,-99.99,0.000000,,2013-02-02 06:52:00,
2013-02-02 01:02:00,-2.0,-12.0,-100.00,West,274,4.0,8.0,61,0.00,,,-99.99,0.000000,,2013-02-02 07:02:00,
2013-02-02 01:11:00,-2.0,-12.0,-100.00,West,274,4.0,8.0,61,0.00,,,-99.99,0.000000,,2013-02-02 07:11:00,
2013-02-02 01:32:00,-2.0,-11.0,-100.00,WNW,284,4.0,8.0,63,0.00,,,0.00,0.000000,,2013-02-02 07:32:00,
2013-02-02 01:42:00,-2.0,-11.0,-100.00,WNW,284,4.0,8.0,63,0.00,,,0.00,0.000000,,2013-02-02 07:42:00,
2013-02-02 01:52:00,-2.0,-11.0,-100.00,WNW,284,4.0,8.0,63,0.00,,,0.00,0.000000,,2013-02-02 07:52:00,
2013-02-02 02:01:00,-2.0,-11.0,-100.00,WNW,284,4.0,8.0,63,0.00,,,0.00,0.000000,,2013-02-02 08:01:00,
2013-02-02 02:11:00,-2.0,-11.0,-100.00,WNW,284,4.0,8.0,63,0.00,,,0.00,0.000000,,2013-02-02 08:11:00,
2013-02-02 03:32:00,-3.0,-11.0,-100.00,West,279,3.0,9.0,67,-99.99,,,0.00,0.000000,,2013-02-02 09:32:00,
2013-02-02 03:42:00,-3.0,-11.0,-100.00,West,279,3.0,9.0,67,-99.99,,,0.00,0.000000,,2013-02-02 09:42:00,
2013-02-02 03:52:00,-3.0,-11.0,-100.00,West,279,3.0,9.0,67,-99.99,,,0.00,0.000000,,2013-02-02 09:52:00,
2013-02-02 04:01:00,-3.0,-11.0,-100.00,West,279,3.0,9.0,67,-99.99,,,0.00,0.000000,,2013-02-02 10:01:00,
2013-02-02 04:11:00,-3.0,-11.0,-100.00,West,279,3.0,9.0,67,-99.99,,,0.00,0.000000,,2013-02-02 10:11:00,
2013-02-02 04:32:00,-5.0,-12.0,-100.00,WNW,296,3.0,7.0,70,0.00,,,0.00,0.000000,,2013-02-02 10:32:00,
2013-02-02 04:42:00,-5.0,-12.0,-100.00,WNW,296,3.0,7.0,70,0.00,,,0.00,0.000000,,2013-02-02 10:42:00,
2013-02-02 04:52:00,-5.0,-12.0,-100.00,WNW,296,3.0,7.0,70,0.00,,,0.00,0.000000,,2013-02-02 10:52:00,
2013-02-02 05:01:00,-5.0,-12.0,-100.00,WNW,296,3.0,7.0,70,0.00,,,0.00,0.000000,,2013-02-02 11:01:00,
2013-02-02 05:11:00,-5.0,-12.0,-100.00,WNW,296,3.0,7.0,70,0.00,,,0.00,0.000000,,2013-02-02 11:11:00,
2013-02-02 05:32:00,-6.0,-13.0,-100.00,WNW,289,3.0,8.0,72,0.00,,,0.00,0.000000,,2013-02-02 11:32:00,
2013-02-02 05:42:00,-6.0,-13.0,-100.00,WNW,289,3.0,8.0,72,0.00,,,0.00,0.000000,,2013-02-02 11:42:00,
2013-02-02 05:52:00,-6.0,-13.0,-100.00,WNW,289,3.0,8.0,72,0.00,,,0.00,0.000000,,2013-02-02 11:52:00,
2013-02-02 06:02:00,-6.0,-13.0,-100.00,WNW,289,3.0,8.0,72,0.00,,,0.00,0.000000,,2013-02-02 12:02:00,
2013-02-02 06:11:00,-6.0,-13.0,-100.00,WNW,289,3.0,8.0,72,0.00,,,0.00,0.000000,,2013-02-02 12:11:00,
2013-02-02 06:32:00,-6.0,-12.0,-100.00,WNW,303,5.0,9.0,73,0.00,,,0.00,0.000000,,2013-02-02 12:32:00,
2013-02-02 06:42:00,-6.0,-12.0,-100.00,WNW,303,5.0,9.0,73,0.00,,,0.00,0.000000,,2013-02-02 12:42:00,
2013-02-02 06:52:00,-6.0,-12.0,-100.00,WNW,303,5.0,9.0,73,0.00,,,0.00,0.000000,,2013-02-02 12:52:00,
2013-02-02 07:02:00,-6.0,-12.0,-100.00,WNW,303,5.0,9.0,73,0.00,,,0.00,0.000000,,2013-02-02 13:02:00,
2013-02-02 07:11:00,-6.0,-12.0,-100.00,WNW,303,5.0,9.0,73,0.00,,,0.00,0.000000,,2013-02-02 13:11:00,
2013-02-02 07:33:00,-7.0,-13.0,-100.00,NW,311,4.0,8.0,75,0.00,,,0.00,1.000000,,2013-02-02 13:33:00,
2013-02-02 07:42:00,-7.0,-13.0,-100.00,NW,311,4.0,8.0,75,0.00,,,0.00,1.000000,,2013-02-02 13:42:00,
2013-02-02 07:52:00,-7.0,-13.0,-100.00,NW,311,4.0,8.0,75,0.00,,,0.00,1.000000,,2013-02-02 13:52:00,
2013-02-02 08:02:00,-7.0,-13.0,-100.00,NW,311,4.0,8.0,75,0.00,,,0.00,1.000000,,2013-02-02 14:02:00,
2013-02-02 08:11:00,-7.0,-13.0,-100.00,NW,311,4.0,8.0,75,0.00,,,0.00,1.000000,,2013-02-02 14:11:00,
2013-02-02 08:33:00,-3.0,-11.0,-100.00,WNW,296,4.0,9.0,69,0.00,,,0.00,52.000000,,2013-02-02 14:33:00,
2013-02-02 09:03:00,-3.0,-11.0,-100.00,WNW,296,4.0,9.0,69,0.00,,,0.00,52.000000,,2013-02-02 15:03:00,
2013-02-02 09:12:00,-3.0,-11.0,-100.00,WNW,296,4.0,9.0,69,0.00,,,0.00,52.000000,,2013-02-02 15:12:00,
2013-02-02 09:33:00,3.0,-7.0,-100.00,NW,319,5.0,10.0,61,0.00,,,0.00,216.000000,,2013-02-02 15:33:00,
2013-02-02 10:03:00,3.0,-7.0,-100.00,NW,319,5.0,10.0,61,0.00,,,0.00,216.000000,,2013-02-02 16:03:00,
2013-02-02 10:11:00,3.0,-7.0,-100.00,NW,319,5.0,10.0,61,0.00,,,0.00,216.000000,,2013-02-02 16:11:00,
2013-02-02 10:42:00,10.0,-4.0,-100.00,NNW,337,5.0,10.0,53,0.00,,,0.00,356.000000,,2013-02-02 16:42:00,
2013-02-02 10:52:00,10.0,-4.0,-100.00,NNW,337,5.0,10.0,53,0.00,,,0.00,356.000000,,2013-02-02 16:52:00,
2013-02-02 11:02:00,10.0,-4.0,-100.00,NNW,337,5.0,10.0,53,0.00,,,0.00,356.000000,,2013-02-02 17:02:00,
2013-02-02 11:11:00,10.0,-4.0,-100.00,NNW,337,5.0,10.0,53,0.00,,,0.00,356.000000,,2013-02-02 17:11:00,
2013-02-02 11:33:00,12.0,-4.0,-100.00,NNW,327,5.0,12.0,48,0.00,,,0.00,457.000000,,2013-02-02 17:33:00,
2013-02-02 11:42:00,12.0,-4.0,-100.00,NNW,327,5.0,12.0,48,0.00,,,0.00,457.000000,,2013-02-02 17:42:00,
2013-02-02 11:52:00,12.0,-4.0,-100.00,NNW,327,5.0,12.0,48,0.00,,,0.00,457.000000,,2013-02-02 17:52:00,
2013-02-02 12:02:00,12.0,-4.0,-100.00,NNW,327,5.0,12.0,48,0.00,,,0.00,457.000000,,2013-02-02 18:02:00,
2013-02-02 12:12:00,12.0,-4.0,-100.00,NNW,327,5.0,12.0,48,0.00,,,0.00,457.000000,,2013-02-02 18:12:00,
2013-02-02 12:32:00,14.0,-4.0,-100.00,North,3,4.0,10.0,44,0.00,,,0.00,504.000000,,2013-02-02 18:32:00,
2013-02-02 12:42:00,14.0,-4.0,-100.00,North,3,4.0,10.0,44,0.00,,,0.00,504.000000,,2013-02-02 18:42:00,
2013-02-02 12:52:00,14.0,-4.0,-100.00,North,3,4.0,10.0,44,0.00,,,0.00,504.000000,,2013-02-02 18:52:00,
2013-02-02 13:02:00,14.0,-4.0,-100.00,North,3,4.0,10.0,44,0.00,,,0.00,504.000000,,2013-02-02 19:02:00,
2013-02-02 13:12:00,14.0,-4.0,-100.00,North,3,4.0,10.0,44,0.00,,,0.00,504.000000,,2013-02-02 19:12:00,
2013-02-02 13:32:00,15.0,-4.0,-100.00,NW,316,4.0,10.0,41,0.00,,,0.00,500.000000,,2013-02-02 19:32:00,
2013-02-02 13:42:00,15.0,-4.0,-100.00,NW,316,4.0,10.0,41,0.00,,,0.00,500.000000,,2013-02-02 19:42:00,
2013-02-02 13:52:00,15.0,-4.0,-100.00,NW,316,4.0,10.0,41,0.00,,,0.00,500.000000,,2013-02-02 19:52:00,
2013-02-02 14:01:00,15.0,-4.0,-100.00,NW,316,4.0,10.0,41,0.00,,,0.00,500.000000,,2013-02-02 20:01:00,
2013-02-02 14:11:00,15.0,-4.0,-100.00,NW,316,4.0,10.0,41,0.00,,,0.00,500.000000,,2013-02-02 20:11:00,
2013-02-02 14:32:00,16.0,-3.0,-100.00,NNW,348,4.0,10.0,41,0.00,,,0.00,435.000000,,2013-02-02 20:32:00,
2013-02-02 14:42:00,16.0,-3.0,-100.00,NNW,348,4.0,10.0,41,0.00,,,0.00,435.000000,,2013-02-02 20:42:00,
2013-02-02 14:52:00,16.0,-3.0,-100.00,NNW,348,4.0,10.0,41,0.00,,,0.00,435.000000,,2013-02-02 20:52:00,
2013-02-02 15:02:00,16.0,-3.0,-100.00,NNW,348,4.0,10.0,41,0.00,,,0.00,435.000000,,2013-02-02 21:02:00,
2013-02-02 15:11:00,16.0,-3.0,-100.00,NNW,348,4.0,10.0,41,0.00,,,0.00,435.000000,,2013-02-02 21:11:00,
2013-02-02 15:32:00,16.0,-3.0,-100.00,WNW,285,3.0,10.0,41,0.00,,,0.00,321.000000,,2013-02-02 21:32:00,
2013-02-02 15:42:00,16.0,-3.0,-100.00,WNW,285,3.0,10.0,41,0.00,,,0.00,321.000000,,2013-02-02 21:42:00,
2013-02-02 15:52:00,16.0,-3.0,-100.00,WNW,285,3.0,10.0,41,0.00,,,0.00,321.000000,,2013-02-02 21:52:00,
2013-02-02 16:02:00,16.0,-3.0,-100.00,WNW,285,3.0,10.0,41,0.00,,,0.00,321.000000,,2013-02-02 22:02:00,
2013-02-02 16:12:00,16.0,-3.0,-100.00,WNW,285,3.0,10.0,41,0.00,,,0.00,321.000000,,2013-02-02 22:12:00,
2013-02-02 16:32:00,14.0,-4.0,-100.00,West,269,4.0,7.0,44,0.00,,,0.00,176.000000,,2013-02-02 22:32:00,
2013-02-02 16:42:00,14.0,-4.0,-100.00,West,269,4.0,7.0,44,0.00,,,0.00,176.000000,,2013-02-02 22:42:00,
2013-02-02 16:52:00,14.0,-4.0,-100.00,West,269,4.0,7.0,44,0.00,,,0.00,176.000000,,2013-02-02 22:52:00,
2013-02-02 17:02:00,14.0,-4.0,-100.00,West,269,4.0,7.0,44,0.00,,,0.00,176.000000,,2013-02-02 23:02:00,
2013-02-02 17:11:00,14.0,-4.0,-100.00,West,269,4.0,7.0,44,0.00,,,0.00,176.000000,,2013-02-02 23:11:00,
2013-02-02 17:32:00,5.0,-4.0,-100.00,NW,306,0.0,6.0,65,0.00,,,0.00,18.000000,,2013-02-02 23:32:00,
2013-02-02 17:42:00,5.0,-4.0,-100.00,NW,306,0.0,6.0,65,0.00,,,0.00,18.000000,,2013-02-02 23:42:00,
2013-02-02 17:52:00,5.0,-4.0,-100.00,NW,306,0.0,6.0,65,0.00,,,0.00,18.000000,,2013-02-02 23:52:00,
2013-02-02 18:02:00,5.0,-4.0,-100.00,NW,306,0.0,6.0,65,0.00,,,0.00,18.000000,,2013-02-03 00:02:00,
2013-02-02 18:11:00,5.0,-4.0,-100.00,NW,306,0.0,6.0,65,0.00,,,0.00,18.000000,,2013-02-03 00:11:00,
2013-02-02 18:32:00,0.0,-6.0,-100.00,NW,314,0.0,2.0,75,0.00,,,0.00,0.000000,,2013-02-03 00:32:00,
2013-02-02 18:42:00,0.0,-6.0,-100.00,NW,314,0.0,2.0,75,0.00,,,0.00,0.000000,,2013-02-03 00:42:00,
2013-02-02 18:52:00,0.0,-6.0,-100.00,NW,314,0.0,2.0,75,0.00,,,0.00,0.000000,,2013-02-03 00:52:00,
2013-02-02 19:02:00,0.0,-6.0,-100.00,NW,314,0.0,2.0,75,0.00,,,0.00,0.000000,,2013-02-03 01:02:00,
2013-02-02 19:11:00,0.0,-6.0,-100.00,NW,314,0.0,2.0,75,0.00,,,0.00,0.000000,,2013-02-03 01:11:00,
2013-02-02 19:32:00,-3.0,-8.0,-100.00,NW,314,0.0,0.0,79,0.00,,,0.00,0.000000,,2013-02-03 01:32:00,
2013-02-02 19:42:00,-3.0,-8.0,-100.00,NW,314,0.0,0.0,79,0.00,,,0.00,0.000000,,2013-02-03 01:42:00,
2013-02-02 19:52:00,-3.0,-8.0,-100.00,NW,314,0.0,0.0,79,0.00,,,0.00,0.000000,,2013-02-03 01:52:00,
2013-02-02 20:01:00,-3.0,-8.0,-100.00,NW,314,0.0,0.0,79,0.00,,,0.00,0.000000,,2013-02-03 02:01:00,
2013-02-02 20:11:00,-3.0,-8.0,-100.00,NW,314,0.0,0.0,79,0.00,,,0.00,0.000000,,2013-02-03 02:11:00,
2013-02-02 20:42:00,-6.0,-11.0,-100.00,WNW,290,0.0,0.0,80,0.00,,,0.00,0.000000,,2013-02-03 02:42:00,
2013-02-02 20:52:00,-6.0,-11.0,-100.00,WNW,290,0.0,0.0,80,0.00,,,0.00,0.000000,,2013-02-03 02:52:00,
2013-02-02 21:02:00,-6.0,-11.0,-100.00,WNW,290,0.0,0.0,80,0.00,,,0.00,0.000000,,2013-02-03 03:02:00,
2013-02-02 21:11:00,-6.0,-11.0,-100.00,WNW,290,0.0,0.0,80,0.00,,,0.00,0.000000,,2013-02-03 03:11:00,
2013-02-02 21:32:00,-6.0,-11.0,-100.00,NNE,14,0.0,0.0,80,0.00,,,0.00,0.000000,,2013-02-03 03:32:00,
2013-02-02 21:42:00,-6.0,-11.0,-100.00,NNE,14,0.0,0.0,80,0.00,,,0.00,0.000000,,2013-02-03 03:42:00,
2013-02-02 21:52:00,-6.0,-11.0,-100.00,NNE,14,0.0,0.0,80,0.00,,,0.00,0.000000,,2013-02-03 03:52:00,
2013-02-02 22:01:00,-6.0,-11.0,-100.00,NNE,14,0.0,0.0,80,0.00,,,0.00,0.000000,,2013-02-03 04:01:00,
2013-02-02 22:11:00,-6.0,-11.0,-100.00,NNE,14,0.0,0.0,80,0.00,,,0.00,0.000000,,2013-02-03 04:11:00,
2013-02-02 22:32:00,-5.0,-9.0,-100.00,NW,312,0.0,0.0,81,0.00,,,0.00,0.000000,,2013-02-03 04:32:00,
2013-02-02 22:42:00,-5.0,-9.0,-100.00,NW,312,0.0,0.0,81,0.00,,,0.00,0.000000,,2013-02-03 04:42:00,
2013-02-02 22:52:00,-5.0,-9.0,-100.00,NW,312,0.0,0.0,81,0.00,,,0.00,0.000000,,2013-02-03 04:52:00,
2013-02-02 23:03:00,-5.0,-9.0,-100.00,NW,312,0.0,0.0,81,0.00,,,0.00,0.000000,,2013-02-03 05:03:00,
2013-02-02 23:11:00,-5.0,-9.0,-100.00,NW,312,0.0,0.0,81,0.00,,,0.00,0.000000,,2013-02-03 05:11:00,
2013-02-02 23:32:00,-4.0,-9.0,-100.00,NNE,28,0.0,3.0,79,0.00,,,0.00,0.000000,,2013-02-03 05:32:00,
2013-02-02 23:42:00,-4.0,-9.0,-100.00,NNE,28,0.0,3.0,79,0.00,,,0.00,0.000000,,2013-02-03 05:42:00,
2013-02-02 23:52:00,-4.0,-9.0,-100.00,NNE,28,0.0,3.0,79,0.00,,,0.00,0.000000,,2013-02-03 05:52:00,